Shults, OK

11:11 AM CDT on September 21, 2014 (GMT -0500)
Fuller Farms | Change Station
CLOSE
Current Station
Personal Weather Station
Location: Haworth, OK
Elevation: 433 ft
Nearby Weather Stations

Elev 433 ft 33.82 °N, 94.71 °W | Updated 7 seconds ago

Clear
Clear
84.0 °F
Feels Like 89 °F
N
1.0
Wind Variable Wind from NW
Gusts 3.0 mph

Today
High -- | Low -- °F
--% Chance of Precip.
Yesterday
High -- | Low -- °F
Precip. -- in
7:06 AM 7:17 PM
Waning Crescent, 6% visible
Pressure 30.10 in
Visibility 10.0 miles
Clouds Clear
Heat Index 89 °F
Dew Point 71 °F
Humidity 66%
Rainfall 0.00 in
Snow Depth Not available.
UV 6 out of 12
Pollen 10.20 out of 12
Air Quality Not available.
Flu Activity Not available.
METAR K4O4 211555Z AUTO 25004KT 10SM CLR 30/20 A3010 RMK AO2

More Conditions Fewer Conditions

Pressure 30.10 in
Visibility 10.0 miles
Clouds Clear
Heat Index 89 °F
Dew Point 71 °F
Humidity 66%
Rainfall 0.00 in
Snow Depth Not available.
UV 6 out of 12
Pollen 10.20 out of 12
Air Quality Not available.
Flu Activity Not available.
METAR K4O4 211555Z AUTO 25004KT 10SM CLR 30/20 A3010 RMK AO2

More Conditions Fewer Conditions

10-Day Weather Forecast

Almanac

Astronomy

Sep. 21, 2014 Rise Set
Actual Time 7:06 AM CDT 7:17 PM CDT
Civil Twilight 6:41 AM CDT 7:41 PM CDT
Nautical Twilight 6:12 AM CDT 8:11 PM CDT
Astronomical Twilight 5:42 AM CDT 8:40 PM CDT
Moon 4:46 AM CDT 5:49 PM CDT
Length of Visible Light 13h 00m
Length of Day
12h 10m
Tomorrow will be 2m 6s shorter.
Waning Crescent, 6% of the Moon is Illuminated
Today
Waning Crescent
Sep 24
New
Oct 1
First Quarter
Oct 8
Full
Oct 15
Last Quarter

Today's Extremes

State Highs State Lows

Community

WunderPhotos

Upload Photos

1,755,181 photos uploaded!

Nearby

Snow Depth

Station Depth Elevation
No new snow has been reported.

Earthquake Activity

City Distance Mag. Time & Date
No recent earthquake activity has been reported nearby.
Minimum magnitude displayed is 2.5.

Coastal Water Temperatures

Place Temperature
No Stations Reporting

Nearby Weather Stations